Time;durP1;ratioP1;P1;durP2;ratioP2;P2;SDS_P1;SDS_P2;PMS_P1;PMS_P2;Temp;Humidity;BMP_temperature;BMP_pressure;BME280_temperature;BME280_humidity;BME280_pressure;Samples;Min_cycle;Max_cycle;Signal;HPM_P1;HPM_P2
2022/06/11 00:02:06;;;;;;;10.65;6.10;;;17.00;99.90;;;;;;5145544;27;20084;-73
2022/06/11 00:04:38;;;;;;;11.98;5.72;;;17.00;99.90;;;;;;5123168;27;20039;-73
2022/06/11 00:07:06;;;;;;;;;;;17.00;99.90;;;;;;5146475;27;20027;-73
2022/06/11 00:09:33;;;;;;;12.13;6.30;;;17.00;99.90;;;;;;5121959;27;19915;-72
2022/06/11 00:11:59;;;;;;;15.55;6.57;;;17.00;99.90;;;;;;5125150;27;20039;-73
2022/06/11 00:14:28;;;;;;;9.57;5.55;;;17.10;99.90;;;;;;5128741;27;20048;-73
2022/06/11 00:16:54;;;;;;;11.35;6.03;;;17.10;99.90;;;;;;5128835;27;20034;-73
2022/06/11 00:19:21;;;;;;;10.95;5.65;;;17.10;99.90;;;;;;5124367;27;20039;-73
2022/06/11 00:21:49;;;;;;;13.25;6.30;;;17.10;99.90;;;;;;5144861;27;20057;-73
2022/06/11 00:24:16;;;;;;;12.85;6.50;;;17.10;99.90;;;;;;5144960;27;20117;-73
2022/06/11 00:26:43;;;;;;;12.82;7.20;;;17.20;99.90;;;;;;5133597;27;20038;-73
2022/06/11 00:29:11;;;;;;;12.13;6.75;;;17.10;99.90;;;;;;5147940;27;20043;-73
2022/06/11 00:31:38;;;;;;;12.70;7.15;;;17.10;99.90;;;;;;5145482;27;20390;-73
2022/06/11 00:34:04;;;;;;;11.95;6.57;;;17.10;99.90;;;;;;5124673;27;20027;-73
2022/06/11 00:36:30;;;;;;;13.07;6.70;;;17.00;99.90;;;;;;5127209;27;20211;-73
2022/06/11 00:38:57;;;;;;;11.82;6.55;;;17.00;99.90;;;;;;5128323;27;20074;-73
2022/06/11 00:41:26;;;;;;;16.77;7.05;;;17.00;99.90;;;;;;5145801;27;20076;-73
2022/06/11 00:43:53;;;;;;;11.93;6.55;;;16.90;99.90;;;;;;5144968;27;20031;-73
2022/06/11 00:46:54;;;;;;;13.15;6.38;;;16.90;99.90;;;;;;5129500;27;20039;-73
2022/06/11 00:49:22;;;;;;;11.05;5.80;;;16.80;99.90;;;;;;5145704;27;20125;-73
2022/06/11 00:51:53;;;;;;;11.77;5.97;;;16.70;99.90;;;;;;5122851;27;20035;-72
2022/06/11 00:54:23;;;;;;;9.18;6.00;;;16.60;99.90;;;;;;5118164;27;20031;-73
2022/06/11 00:56:54;;;;;;;12.38;6.50;;;16.50;99.90;;;;;;5145339;27;20114;-73
2022/06/11 00:59:33;;;;;;;12.18;6.75;;;16.40;99.90;;;;;;5145900;27;20042;-73
2022/06/11 01:01:59;;;;;;;12.60;7.35;;;16.40;99.90;;;;;;5126529;27;20035;-73
2022/06/11 01:04:44;;;;;;;14.63;7.10;;;16.30;99.90;;;;;;5127661;27;20473;-72
2022/06/11 01:07:32;;;;;;;14.90;7.40;;;16.40;99.90;;;;;;5123419;27;20032;-72
2022/06/11 01:10:23;;;;;;;12.52;6.97;;;16.40;99.90;;;;;;5084887;27;20046;-73
2022/06/11 01:13:13;;;;;;;12.50;7.07;;;16.40;99.90;;;;;;5124921;27;20034;-72
2022/06/11 01:15:45;;;;;;;12.57;5.97;;;16.40;99.90;;;;;;5140006;27;20049;-72
2022/06/11 01:18:17;;;;;;;11.38;6.18;;;16.50;99.90;;;;;;5118311;27;20043;-73
2022/06/11 01:21:19;;;;;;;7.80;6.13;;;16.40;99.90;;;;;;5125569;27;20095;-72
2022/06/11 01:24:18;;;;;;;8.77;6.22;;;16.40;99.90;;;;;;5123592;27;20104;-73
2022/06/11 01:27:04;;;;;;;11.93;6.10;;;16.40;99.90;;;;;;5122132;27;20163;-73
2022/06/11 01:29:46;;;;;;;13.88;6.47;;;16.30;99.90;;;;;;5123816;27;20534;-73
2022/06/11 01:32:25;;;;;;;8.57;6.50;;;16.20;99.90;;;;;;5140255;27;20038;-73
2022/06/11 01:35:06;;;;;;;13.88;5.93;;;16.20;99.90;;;;;;5125899;27;20052;-72
2022/06/11 01:37:41;;;;;;;10.10;6.28;;;16.00;99.90;;;;;;5146615;27;20034;-72
2022/06/11 01:40:07;;;;;;;11.57;5.53;;;16.00;99.90;;;;;;5142939;27;20043;-72
2022/06/11 01:42:50;;;;;;;12.38;6.43;;;15.90;99.90;;;;;;5123006;27;20044;-73
2022/06/11 01:45:29;;;;;;;10.57;6.63;;;15.90;99.90;;;;;;5144680;27;20042;-72
2022/06/11 01:47:56;;;;;;;11.90;6.70;;;15.90;99.90;;;;;;5127974;27;20050;-72
2022/06/11 01:50:25;;;;;;;12.50;6.97;;;15.90;99.90;;;;;;5122053;27;20125;-72
2022/06/11 01:53:07;;;;;;;11.15;6.70;;;15.80;99.90;;;;;;5128963;27;20035;-72
2022/06/11 01:56:02;;;;;;;11.35;6.78;;;15.80;99.90;;;;;;5135333;27;20118;-72
2022/06/11 01:58:30;;;;;;;10.52;7.20;;;15.80;99.90;;;;;;5132306;27;20030;-72
2022/06/11 02:01:13;;;;;;;12.23;6.88;;;15.70;99.90;;;;;;5143765;27;20527;-72
2022/06/11 02:03:46;;;;;;;10.30;6.40;;;15.70;99.90;;;;;;5116505;27;20058;-73
2022/06/11 02:06:34;;;;;;;9.43;6.57;;;15.70;99.90;;;;;;5118673;27;20038;-72
2022/06/11 02:09:12;;;;;;;13.77;6.97;;;15.70;99.90;;;;;;5138438;27;20050;-72
2022/06/11 02:11:42;;;;;;;13.88;7.38;;;15.70;99.90;;;;;;5122469;27;20046;-72
2022/06/11 02:14:24;;;;;;;15.90;8.95;;;15.70;99.90;;;;;;5140300;27;20045;-72
2022/06/11 02:16:57;;;;;;;17.63;8.90;;;15.70;99.90;;;;;;5127012;27;20034;-72
2022/06/11 02:19:36;;;;;;;12.00;8.20;;;15.70;99.90;;;;;;5121498;27;20035;-72
2022/06/11 02:22:23;;;;;;;13.93;8.23;;;15.70;99.90;;;;;;5124995;27;20125;-73
2022/06/11 02:25:11;;;;;;;16.05;8.32;;;15.60;99.90;;;;;;5122359;27;20133;-72
2022/06/11 02:27:40;;;;;;;13.00;7.90;;;15.60;99.90;;;;;;5098361;27;20118;-73
2022/06/11 02:30:09;;;;;;;12.60;7.40;;;15.60;99.90;;;;;;5136790;27;20039;-73
2022/06/11 02:32:35;;;;;;;11.43;7.47;;;15.40;99.90;;;;;;5117624;27;20041;-73
2022/06/11 02:35:05;;;;;;;17.60;7.60;;;15.40;99.90;;;;;;5122252;27;20035;-73
2022/06/11 02:37:31;;;;;;;14.30;8.07;;;15.40;99.90;;;;;;5135907;27;20026;-73
2022/06/11 02:40:01;;;;;;;12.20;7.57;;;15.30;99.90;;;;;;5122779;27;20124;-72
2022/06/11 02:42:27;;;;;;;14.93;9.20;;;15.30;99.90;;;;;;5135737;27;20054;-73
2022/06/11 02:44:53;;;;;;;14.55;9.60;;;15.40;99.90;;;;;;5117630;27;20046;-73
2022/06/11 02:47:20;;;;;;;13.30;7.97;;;15.40;99.90;;;;;;5126976;27;20042;-73
2022/06/11 02:49:47;;;;;;;16.00;8.57;;;15.30;99.90;;;;;;5124807;27;20051;-73
2022/06/11 02:52:16;;;;;;;14.68;8.65;;;15.30;99.90;;;;;;5144764;27;20034;-72
2022/06/11 02:54:43;;;;;;;14.95;9.25;;;15.30;99.90;;;;;;5142862;27;20049;-72
2022/06/11 02:57:15;;;;;;;16.67;10.13;;;15.20;99.90;;;;;;5146229;27;20043;-72
2022/06/11 02:59:44;;;;;;;13.05;9.65;;;15.10;99.90;;;;;;5134005;22;20129;-73
2022/06/11 03:02:11;;;;;;;17.48;11.07;;;15.10;99.90;;;;;;5064516;28;20036;-73
2022/06/11 03:04:37;;;;;;;20.55;11.93;;;15.10;99.90;;;;;;5065834;28;20041;-73
2022/06/11 03:07:04;;;;;;;21.08;12.52;;;15.10;99.90;;;;;;5066352;28;20028;-73
2022/06/11 03:09:32;;;;;;;18.77;12.50;;;15.20;99.90;;;;;;5065041;28;20041;-72
2022/06/11 03:11:59;;;;;;;19.30;12.93;;;15.20;99.90;;;;;;5067252;28;20119;-72
2022/06/11 03:14:25;;;;;;;20.63;13.10;;;15.20;99.90;;;;;;5072324;28;20048;-72
2022/06/11 03:16:51;;;;;;;20.27;13.13;;;15.20;99.90;;;;;;5080424;28;20044;-72
2022/06/11 03:19:20;;;;;;;20.20;13.68;;;15.20;99.90;;;;;;5067443;28;20121;-73
2022/06/11 03:21:53;;;;;;;21.30;13.13;;;15.20;99.90;;;;;;5084917;28;20127;-72
2022/06/11 03:24:19;;;;;;;17.65;12.63;;;15.20;99.90;;;;;;5062984;28;20040;-73
2022/06/11 03:26:45;;;;;;;17.98;12.48;;;15.20;99.90;;;;;;5065799;28;20048;-72
2022/06/11 03:29:11;;;;;;;20.42;12.10;;;15.20;99.90;;;;;;5064638;28;20152;-72
2022/06/11 03:31:37;;;;;;;16.05;10.43;;;15.20;99.90;;;;;;5082247;28;20052;-72
2022/06/11 03:34:04;;;;;;;18.15;11.00;;;15.20;99.90;;;;;;5063501;28;20089;-72
2022/06/11 03:36:30;;;;;;;15.70;10.15;;;15.20;99.90;;;;;;5068806;28;20064;-72
2022/06/11 03:38:56;;;;;;;18.58;10.25;;;15.20;99.90;;;;;;5066813;28;20036;-73
2022/06/11 03:41:22;;;;;;;16.88;9.68;;;15.20;99.90;;;;;;5066105;28;20090;-72
2022/06/11 03:43:49;;;;;;;17.88;8.95;;;15.20;99.90;;;;;;5067570;28;20068;-72
2022/06/11 03:46:16;;;;;;;16.65;9.10;;;15.20;99.90;;;;;;5068484;28;20085;-72
2022/06/11 03:48:42;;;;;;;15.13;8.07;;;15.20;99.90;;;;;;5065074;28;20032;-73
2022/06/11 03:51:09;;;;;;;12.15;7.65;;;15.10;99.90;;;;;;5065012;28;20045;-73
2022/06/11 03:53:36;;;;;;;14.02;7.90;;;15.10;99.90;;;;;;5067577;28;20033;-73
2022/06/11 03:56:04;;;;;;;20.63;7.45;;;15.10;99.90;;;;;;5068823;28;20040;-73
2022/06/11 03:58:30;;;;;;;13.65;6.65;;;15.10;99.90;;;;;;5082728;28;20183;-72
2022/06/11 04:03:45;;;;;;;10.43;5.70;;;15.10;99.90;;;;;;5063125;28;20123;-72
2022/06/11 04:06:11;;;;;;;17.73;5.82;;;15.10;99.90;;;;;;5067559;28;20037;-73
2022/06/11 04:08:38;;;;;;;14.55;5.20;;;15.00;99.90;;;;;;5066454;28;20052;-72
2022/06/11 04:11:04;;;;;;;17.25;5.97;;;15.10;99.90;;;;;;5066565;28;20044;-72
2022/06/11 04:13:33;;;;;;;16.60;5.10;;;15.00;99.90;;;;;;5069772;28;20044;-72
2022/06/11 04:15:59;;;;;;;15.15;5.43;;;15.10;99.90;;;;;;5063485;28;20044;-72
2022/06/11 04:18:33;;;;;;;16.60;5.05;;;15.10;99.90;;;;;;5059615;28;20047;-72
2022/06/11 04:21:03;;;;;;;18.95;5.25;;;15.10;99.90;;;;;;5064986;28;20040;-72
2022/06/11 04:23:30;;;;;;;16.23;4.95;;;15.10;99.90;;;;;;5070278;28;20028;-73
2022/06/11 04:26:02;;;;;;;17.20;4.82;;;15.00;99.90;;;;;;5071746;28;20054;-73
2022/06/11 04:28:29;;;;;;;19.63;4.63;;;15.10;99.90;;;;;;5083101;28;20603;-72
2022/06/11 04:30:57;;;;;;;14.30;4.10;;;15.10;99.90;;;;;;5063040;28;20076;-73
2022/06/11 04:33:23;;;;;;;16.45;4.20;;;15.10;99.90;;;;;;5065764;28;20036;-73
2022/06/11 04:35:49;;;;;;;16.90;4.78;;;15.20;99.90;;;;;;5066020;28;20040;-73
2022/06/11 04:38:16;;;;;;;20.30;4.05;;;15.20;99.90;;;;;;5066166;28;20094;-72
2022/06/11 04:40:42;;;;;;;19.33;4.20;;;15.20;99.90;;;;;;5063355;28;20047;-72
2022/06/11 04:43:08;;;;;;;18.05;4.82;;;15.20;99.90;;;;;;5063049;28;20043;-72
2022/06/11 04:45:34;;;;;;;20.77;4.72;;;15.20;99.90;;;;;;5049881;28;20041;-73
2022/06/11 04:48:00;;;;;;;18.33;4.38;;;15.10;99.90;;;;;;5063777;28;20071;-72
2022/06/11 04:50:26;;;;;;;17.02;4.40;;;15.10;99.90;;;;;;5068815;28;20091;-73
2022/06/11 04:52:51;;;;;;;16.63;4.55;;;15.20;99.90;;;;;;5059318;28;20082;-72
2022/06/11 04:55:17;;;;;;;15.90;4.50;;;15.20;99.90;;;;;;5066520;28;20123;-73
2022/06/11 04:57:45;;;;;;;13.95;4.28;;;15.20;99.90;;;;;;5070683;28;20044;-72
2022/06/11 05:00:15;;;;;;;11.70;4.38;;;15.30;99.90;;;;;;5064934;28;20082;-72
2022/06/11 05:02:41;;;;;;;20.02;4.95;;;15.30;99.90;;;;;;5077944;28;20037;-72
2022/06/11 05:05:14;;;;;;;16.88;4.45;;;15.30;99.90;;;;;;5065611;28;20056;-72
2022/06/11 05:07:41;;;;;;;14.32;4.47;;;15.30;99.90;;;;;;5064987;28;20511;-72
2022/06/11 05:10:08;;;;;;;12.55;4.38;;;15.40;99.90;;;;;;5063610;28;20036;-73
2022/06/11 05:12:34;;;;;;;18.33;5.25;;;15.50;99.90;;;;;;5062594;28;20391;-73
2022/06/11 05:14:59;;;;;;;16.25;4.60;;;15.50;99.90;;;;;;5064920;28;20036;-73
2022/06/11 05:17:25;;;;;;;17.23;4.80;;;15.50;99.90;;;;;;5062993;28;20047;-73
2022/06/11 05:19:51;;;;;;;13.90;5.22;;;15.40;99.90;;;;;;5060609;28;20695;-73
2022/06/11 05:22:17;;;;;;;16.80;5.25;;;15.60;99.90;;;;;;5068177;28;20036;-73
2022/06/11 05:24:43;;;;;;;15.02;5.35;;;15.60;99.90;;;;;;5065503;28;20041;-72
2022/06/11 05:27:14;;;;;;;15.07;4.80;;;15.70;99.90;;;;;;5062049;28;21024;-73
2022/06/11 05:30:06;;;;;;;15.05;4.63;;;15.70;99.90;;;;;;5063226;28;20048;-73
2022/06/11 05:32:37;;;;;;;12.85;4.55;;;15.70;99.90;;;;;;5067408;28;20040;-73
2022/06/11 05:35:05;;;;;;;17.35;4.93;;;15.70;99.90;;;;;;5061126;28;20047;-72
2022/06/11 05:37:31;;;;;;;22.80;5.20;;;15.80;99.90;;;;;;5063979;28;20036;-72
2022/06/11 05:39:57;;;;;;;15.90;4.50;;;15.90;99.90;;;;;;5062591;28;20054;-72
2022/06/11 05:42:25;;;;;;;19.50;4.97;;;15.90;99.90;;;;;;5078104;28;20491;-72
2022/06/11 05:44:51;;;;;;;17.20;4.85;;;16.00;99.90;;;;;;5080499;28;20113;-72
2022/06/11 05:47:20;;;;;;;18.65;5.35;;;16.00;99.90;;;;;;5043955;28;20037;-72
2022/06/11 05:49:49;;;;;;;14.68;4.53;;;16.10;99.90;;;;;;5062179;28;20085;-72
2022/06/11 05:52:20;;;;;;;18.13;4.60;;;16.10;99.90;;;;;;5064301;28;20052;-73
2022/06/11 05:54:47;;;;;;;20.85;5.07;;;16.20;99.90;;;;;;5064024;28;20384;-73
2022/06/11 05:57:16;;;;;;;21.02;4.85;;;16.20;99.90;;;;;;5063559;28;20035;-72
2022/06/11 05:59:46;;;;;;;18.02;5.10;;;16.20;99.90;;;;;;5062852;28;20040;-72
2022/06/11 06:02:16;;;;;;;20.58;5.65;;;16.20;99.90;;;;;;5066995;28;20040;-73
2022/06/11 06:04:42;;;;;;;23.00;4.88;;;16.20;99.90;;;;;;5067771;28;20044;-72
2022/06/11 06:07:09;;;;;;;20.00;5.60;;;16.30;99.90;;;;;;5064254;28;20028;-73
2022/06/11 06:09:35;;;;;;;19.30;5.35;;;16.30;99.90;;;;;;5061681;28;20040;-72
2022/06/11 06:12:03;;;;;;;21.13;5.05;;;16.40;99.90;;;;;;5061225;28;20675;-72
2022/06/11 06:14:28;;;;;;;20.20;4.80;;;16.40;99.90;;;;;;5064464;28;20040;-72
2022/06/11 06:16:54;;;;;;;22.27;5.63;;;16.50;99.90;;;;;;5062094;28;20048;-72
2022/06/11 06:19:20;;;;;;;22.45;5.45;;;16.50;99.90;;;;;;5064521;28;20041;-72
2022/06/11 06:21:46;;;;;;;19.65;4.88;;;16.50;99.90;;;;;;5072121;28;20047;-72
2022/06/11 06:24:11;;;;;;;27.63;5.30;;;16.50;99.90;;;;;;5074601;28;20039;-72
2022/06/11 06:26:37;;;;;;;24.25;5.80;;;16.60;99.90;;;;;;5069069;28;20178;-72
2022/06/11 06:29:04;;;;;;;18.63;5.30;;;16.60;99.90;;;;;;5072076;28;20387;-72
2022/06/11 06:31:30;;;;;;;25.10;6.20;;;16.70;99.90;;;;;;5071244;28;20385;-73
2022/06/11 06:34:01;;;;;;;20.88;5.22;;;16.70;99.90;;;;;;5070489;28;20045;-73
2022/06/11 06:36:32;;;;;;;21.08;5.30;;;16.80;99.90;;;;;;5068811;28;20447;-73
2022/06/11 06:38:58;;;;;;;21.23;5.25;;;16.90;99.90;;;;;;5068562;28;20398;-73
2022/06/11 06:41:24;;;;;;;19.83;5.50;;;16.90;99.90;;;;;;5068525;28;20441;-73
2022/06/11 06:43:51;;;;;;;24.42;5.20;;;17.00;99.90;;;;;;5070522;28;20119;-73
2022/06/11 06:46:18;;;;;;;25.77;6.15;;;17.10;99.90;;;;;;5069904;28;20198;-73
2022/06/11 06:48:44;;;;;;;21.42;5.32;;;17.10;99.90;;;;;;5069319;28;20044;-73
2022/06/11 06:51:12;;;;;;;27.98;5.15;;;17.00;99.90;;;;;;5064739;28;20127;-72
2022/06/11 06:53:40;;;;;;;24.80;5.72;;;17.10;99.90;;;;;;5062124;28;20041;-72
2022/06/11 06:56:09;;;;;;;22.88;5.28;;;17.20;99.90;;;;;;5068705;28;20711;-73
2022/06/11 06:58:34;;;;;;;23.50;5.63;;;17.40;99.90;;;;;;5065638;28;20044;-72
2022/06/11 07:01:02;;;;;;;23.73;6.13;;;17.40;99.90;;;;;;5068212;28;20036;-72
2022/06/11 07:03:27;;;;;;;24.50;5.68;;;17.50;99.90;;;;;;5090283;28;20036;-72
2022/06/11 07:05:53;;;;;;;27.42;5.90;;;17.60;99.90;;;;;;5071015;28;20597;-72
2022/06/11 07:08:19;;;;;;;21.48;5.95;;;17.60;99.90;;;;;;5072668;28;20554;-72
2022/06/11 07:10:51;;;;;;;27.45;5.78;;;17.60;99.90;;;;;;5068864;28;20040;-73
2022/06/11 07:13:18;;;;;;;28.55;5.90;;;17.70;99.90;;;;;;5068279;28;20051;-72
2022/06/11 07:15:45;;;;;;;23.13;5.53;;;17.70;99.90;;;;;;5076783;28;20094;-73
2022/06/11 07:18:20;;;;;;;24.83;5.43;;;17.80;99.90;;;;;;5091884;28;20037;-73
2022/06/11 07:20:48;;;;;;;24.77;6.60;;;17.90;99.90;;;;;;5073276;28;20491;-73
2022/06/11 07:23:25;;;;;;;28.00;6.25;;;18.00;99.90;;;;;;5089107;28;20036;-73
2022/06/11 07:25:54;;;;;;;28.15;6.35;;;18.00;99.90;;;;;;5072340;28;20039;-73
2022/06/11 07:28:33;;;;;;;22.67;5.55;;;18.10;99.90;;;;;;5072391;28;20131;-72
2022/06/11 07:31:00;;;;;;;25.25;5.88;;;18.10;99.90;;;;;;5070921;28;20036;-72
2022/06/11 07:33:26;;;;;;;23.70;5.70;;;18.10;99.90;;;;;;5072362;28;20097;-73
2022/06/11 07:35:53;;;;;;;20.38;5.28;;;18.20;99.90;;;;;;5073664;28;20120;-73
2022/06/11 07:38:21;;;;;;;23.45;6.05;;;18.30;99.90;;;;;;5052013;28;20040;-73
2022/06/11 07:40:47;;;;;;;29.95;5.97;;;18.50;99.90;;;;;;5072209;28;20041;-73
2022/06/11 07:43:13;;;;;;;23.65;5.75;;;18.60;99.90;;;;;;5073845;28;20040;-73
2022/06/11 07:45:41;;;;;;;24.17;5.85;;;18.80;99.90;;;;;;5072525;28;20051;-73
2022/06/11 07:48:08;;;;;;;25.33;5.90;;;18.80;99.90;;;;;;5074349;28;20044;-73
2022/06/11 07:50:37;;;;;;;27.25;6.15;;;18.80;99.90;;;;;;5072506;28;20036;-73
2022/06/11 07:53:04;;;;;;;29.90;6.05;;;18.90;99.90;;;;;;5072721;28;20480;-73
2022/06/11 07:55:30;;;;;;;26.73;5.43;;;18.90;99.90;;;;;;5072286;28;20044;-73
2022/06/11 07:57:57;;;;;;;25.48;5.85;;;18.80;99.90;;;;;;5073397;28;20047;-73
2022/06/11 08:00:30;;;;;;;26.33;5.65;;;18.70;99.90;;;;;;5070598;28;20075;-73
2022/06/11 08:02:56;;;;;;;23.30;6.15;;;18.80;99.90;;;;;;5083756;28;20128;-73
2022/06/11 08:05:22;;;;;;;20.45;4.78;;;18.80;99.90;;;;;;5056370;28;20143;-73
2022/06/11 08:07:48;;;;;;;23.83;5.50;;;18.80;99.90;;;;;;5072017;28;20055;-73
2022/06/11 08:10:15;;;;;;;26.05;5.90;;;18.90;99.90;;;;;;5071877;28;20067;-73
2022/06/11 08:12:41;;;;;;;26.75;5.70;;;19.10;99.90;;;;;;5070263;28;20040;-73
2022/06/11 08:15:07;;;;;;;22.67;5.15;;;19.10;99.90;;;;;;5071904;28;20041;-73
2022/06/11 08:17:34;;;;;;;25.23;4.72;;;19.40;99.90;;;;;;5073214;28;20071;-73
2022/06/11 08:20:00;;;;;;;21.65;5.28;;;19.50;99.90;;;;;;5071668;28;20040;-73
2022/06/11 08:22:26;;;;;;;28.15;5.75;;;19.50;99.90;;;;;;5075533;28;20037;-73
2022/06/11 08:24:52;;;;;;;27.33;5.55;;;19.50;99.90;;;;;;5071859;28;20040;-73
2022/06/11 08:27:18;;;;;;;27.20;5.80;;;19.50;99.90;;;;;;5087170;28;20043;-73
2022/06/11 08:29:44;;;;;;;27.85;5.80;;;19.70;99.90;;;;;;5070554;28;20040;-73
2022/06/11 08:32:11;;;;;;;23.65;6.13;;;19.80;99.90;;;;;;5069516;28;20048;-73
2022/06/11 08:34:39;;;;;;;29.95;6.07;;;19.80;99.90;;;;;;5071219;28;20523;-73
2022/06/11 08:37:04;;;;;;;24.42;5.32;;;19.90;99.90;;;;;;5071342;28;20418;-73
2022/06/11 08:39:30;;;;;;;24.60;5.18;;;20.00;99.90;;;;;;5067433;28;20039;-73
2022/06/11 08:41:59;;;;;;;24.67;5.32;;;20.20;99.90;;;;;;5069775;28;20036;-73
2022/06/11 08:44:27;;;;;;;25.58;5.38;;;20.40;99.90;;;;;;5087310;28;20050;-73
2022/06/11 08:46:56;;;;;;;24.65;5.68;;;20.40;99.90;;;;;;5075524;28;20036;-73
2022/06/11 08:49:43;;;;;;;24.27;5.32;;;20.40;99.90;;;;;;5068078;28;20040;-74
2022/06/11 08:52:11;;;;;;;21.38;5.18;;;20.40;99.90;;;;;;5070519;28;20572;-73
2022/06/11 08:54:41;;;;;;;29.05;5.40;;;20.50;99.90;;;;;;5065290;28;20039;-73
2022/06/11 08:57:27;;;;;;;24.17;5.93;;;20.50;99.90;;;;;;5068587;28;20036;-73
2022/06/11 09:00:16;;;;;;;24.40;5.13;;;20.70;99.90;;;;;;5067283;28;20033;-73
2022/06/11 09:02:57;;;;;;;26.83;6.35;;;20.60;99.90;;;;;;5064539;28;20039;-74
2022/06/11 09:05:38;;;;;;;27.38;5.90;;;20.90;99.90;;;;;;5063791;28;20051;-74
2022/06/11 09:08:57;;;;;;;27.40;5.68;;;20.90;99.90;;;;;;5061897;28;20080;-73
2022/06/11 09:11:37;;;;;;;20.83;5.45;;;21.00;99.90;;;;;;5006674;28;20053;-73
2022/06/11 09:14:06;;;;;;;18.90;4.95;;;21.00;99.90;;;;;;5002470;28;20052;-73
2022/06/11 09:16:55;;;;;;;20.00;4.97;;;21.00;99.90;;;;;;5053757;28;20985;-73
2022/06/11 09:19:36;;;;;;;24.27;5.32;;;21.00;99.90;;;;;;5078171;28;20119;-73
2022/06/11 09:22:27;;;;;;;21.00;4.57;;;21.20;99.90;;;;;;5051199;28;20399;-73
2022/06/11 09:25:17;;;;;;;19.13;4.53;;;21.20;99.90;;;;;;5065393;28;20041;-74
2022/06/11 09:27:54;;;;;;;20.88;4.55;;;21.20;99.90;;;;;;5065181;28;20075;-73
2022/06/11 09:30:26;;;;;;;23.98;5.32;;;21.30;99.90;;;;;;5063348;28;20097;-73
2022/06/11 09:33:08;;;;;;;21.83;4.85;;;21.50;99.90;;;;;;5078755;28;20051;-73
2022/06/11 09:35:50;;;;;;;21.55;4.50;;;21.60;99.90;;;;;;5080369;28;20040;-74
2022/06/11 09:38:41;;;;;;;20.10;5.00;;;21.40;99.90;;;;;;5088893;28;20169;-74
2022/06/11 09:41:29;;;;;;;19.15;4.70;;;21.60;99.90;;;;;;5064454;28;20036;-73
2022/06/11 09:44:17;;;;;;;18.25;4.18;;;21.70;99.90;;;;;;5087132;28;20033;-73
2022/06/11 09:46:57;;;;;;;18.00;4.57;;;22.00;99.90;;;;;;5062399;28;20040;-73
2022/06/11 09:50:07;;;;;;;14.18;3.65;;;21.80;99.90;;;;;;5056500;28;20083;-73
2022/06/11 09:52:42;;;;;;;14.65;3.70;;;22.10;96.60;;;;;;5022970;28;20048;-73
2022/06/11 09:55:26;;;;;;;16.30;3.95;;;22.30;97.40;;;;;;5066404;28;20054;-74
2022/06/11 09:58:16;;;;;;;18.17;3.90;;;22.20;92.80;;;;;;5087268;28;20091;-73
2022/06/11 10:00:56;;;;;;;12.25;3.72;;;22.30;99.10;;;;;;5048863;28;20495;-73
2022/06/11 10:03:40;;;;;;;18.08;4.05;;;22.50;97.80;;;;;;5068794;28;20032;-72
2022/06/11 10:06:14;;;;;;;16.00;3.78;;;22.60;97.60;;;;;;5047552;28;20426;-72
2022/06/11 10:08:56;;;;;;;14.52;4.18;;;22.80;98.10;;;;;;5083976;28;20041;-72
2022/06/11 10:11:29;;;;;;;17.00;3.72;;;22.90;93.50;;;;;;5068785;28;20032;-72
2022/06/11 10:14:31;;;;;;;15.50;4.05;;;22.90;92.10;;;;;;5065751;28;20036;-72
2022/06/11 10:17:27;;;;;;;19.15;4.28;;;23.10;90.40;;;;;;5061997;28;20131;-72
2022/06/11 10:20:30;;;;;;;18.30;4.05;;;22.90;90.30;;;;;;5083045;28;20045;-73
2022/06/11 10:23:02;;;;;;;18.17;4.63;;;22.70;88.90;;;;;;5067548;28;20029;-73
2022/06/11 10:25:32;;;;;;;;;;;22.60;90.50;;;;;;5051704;28;20071;-72
2022/06/11 10:28:12;;;;;;;13.65;3.50;;;22.70;95.80;;;;;;5074549;28;19981;-74
2022/06/11 10:30:51;;;;;;;13.88;3.67;;;22.90;86.10;;;;;;5084186;28;20111;-74
2022/06/11 10:33:28;;;;;;;17.70;4.25;;;23.00;91.80;;;;;;5069584;28;20085;-74
2022/06/11 10:36:02;;;;;;;13.70;3.28;;;23.10;94.80;;;;;;5082166;28;20122;-74
2022/06/11 10:38:34;;;;;;;16.08;3.85;;;23.50;91.90;;;;;;5064500;28;20045;-74
2022/06/11 10:41:03;;;;;;;14.20;3.90;;;23.60;88.60;;;;;;5067554;28;20045;-74
2022/06/11 10:43:49;;;;;;;10.85;3.28;;;23.60;79.10;;;;;;5080797;28;20037;-74
2022/06/11 10:46:16;;;;;;;16.35;3.50;;;23.40;66.30;;;;;;5070189;28;20041;-73
2022/06/11 10:48:41;;;;;;;12.65;3.17;;;23.30;72.20;;;;;;5057506;28;20056;-74
2022/06/11 10:51:30;;;;;;;13.82;3.60;;;23.20;68.50;;;;;;5065080;28;20491;-74
2022/06/11 10:54:20;;;;;;;12.63;3.47;;;23.20;74.60;;;;;;5063636;28;20033;-74
2022/06/11 10:57:12;;;;;;;17.30;3.60;;;23.20;70.50;;;;;;5064058;28;20037;-74
2022/06/11 10:59:43;;;;;;;17.77;3.60;;;23.20;72.50;;;;;;5047075;28;20044;-74
2022/06/11 11:02:31;;;;;;;16.25;4.22;;;23.10;74.30;;;;;;5059835;28;20123;-74
2022/06/11 11:05:10;;;;;;;11.70;3.45;;;23.20;73.90;;;;;;5059789;28;20049;-72
2022/06/11 11:07:55;;;;;;;11.68;3.28;;;23.00;72.50;;;;;;5062191;28;20040;-73
2022/06/11 11:10:36;;;;;;;20.35;3.72;;;22.90;70.30;;;;;;5080794;28;20040;-72
2022/06/11 11:13:32;;;;;;;12.02;2.90;;;23.00;69.40;;;;;;5081303;28;20036;-71
2022/06/11 11:16:13;;;;;;;25.15;6.82;;;23.10;69.10;;;;;;5063772;28;21661;-73
2022/06/11 11:18:53;;;;;;;60.15;13.77;;;23.10;67.50;;;;;;5062878;28;20097;-73
2022/06/11 11:21:32;;;;;;;13.27;3.20;;;23.30;67.90;;;;;;5065541;28;20372;-73
2022/06/11 11:24:10;;;;;;;16.17;3.20;;;23.30;67.30;;;;;;5063939;28;20407;-73
2022/06/11 11:27:00;;;;;;;18.73;3.75;;;23.10;73.90;;;;;;5080038;28;20564;-73
2022/06/11 11:29:34;;;;;;;12.95;3.33;;;23.50;72.30;;;;;;5048089;28;20052;-73
2022/06/11 11:32:50;;;;;;;13.07;3.03;;;23.30;67.60;;;;;;5065497;28;20105;-73
2022/06/11 11:35:26;;;;;;;12.63;3.03;;;23.40;71.20;;;;;;5058513;28;20503;-72
2022/06/11 11:38:02;;;;;;;11.15;3.00;;;23.40;68.90;;;;;;5048123;28;21394;-73
2022/06/11 11:40:32;;;;;;;15.38;3.60;;;23.50;66.90;;;;;;5061242;28;20127;-72
2022/06/11 11:43:04;;;;;;;14.20;3.45;;;23.50;67.40;;;;;;5061634;28;21683;-73
2022/06/11 11:45:44;;;;;;;14.88;3.33;;;23.60;67.80;;;;;;5086477;28;20060;-80
2022/06/11 11:48:31;;;;;;;12.98;3.30;;;23.60;66.30;;;;;;5062665;28;21362;-73
2022/06/11 11:51:07;;;;;;;13.18;3.15;;;23.60;67.00;;;;;;5064064;28;20482;-73
2022/06/11 11:53:48;;;;;;;15.43;3.78;;;23.70;68.40;;;;;;5060132;28;20048;-73
2022/06/11 11:56:39;;;;;;;11.88;3.47;;;23.80;68.20;;;;;;5068082;28;20476;-73
2022/06/11 11:59:17;;;;;;;15.25;3.55;;;24.10;66.70;;;;;;5067794;28;20040;-74
2022/06/11 12:01:44;;;;;;;15.32;3.47;;;24.30;66.10;;;;;;5052026;28;20498;-73
2022/06/11 12:04:20;;;;;;;15.18;3.30;;;24.40;68.10;;;;;;5064321;28;20040;-73
2022/06/11 12:06:55;;;;;;;12.60;3.53;;;24.90;69.90;;;;;;5062210;28;20491;-73
2022/06/11 12:09:39;;;;;;;12.23;3.47;;;24.90;63.80;;;;;;5067817;28;20048;-72
2022/06/11 12:12:12;;;;;;;14.23;3.85;;;25.10;61.20;;;;;;5086745;28;20044;-72
2022/06/11 12:14:46;;;;;;;12.15;3.33;;;25.20;63.90;;;;;;5070292;28;20048;-72
2022/06/11 12:17:49;;;;;;;15.38;3.65;;;25.10;64.10;;;;;;5069194;28;20128;-72
2022/06/11 12:20:37;;;;;;;12.80;3.15;;;25.30;66.10;;;;;;5068585;28;20097;-72
2022/06/11 12:23:16;;;;;;;13.90;3.70;;;25.20;59.70;;;;;;5066617;28;20066;-72
2022/06/11 12:26:08;;;;;;;12.82;3.40;;;25.00;61.40;;;;;;5067998;28;20122;-72
2022/06/11 12:28:47;;;;;;;17.92;3.70;;;24.90;59.50;;;;;;5080371;28;20047;-72
2022/06/11 12:31:13;;;;;;;11.15;3.42;;;25.00;64.30;;;;;;5062415;28;20475;-73
2022/06/11 12:33:43;;;;;;;13.65;3.47;;;25.30;64.70;;;;;;5066911;28;20070;-73
2022/06/11 12:36:39;;;;;;;14.35;3.70;;;25.50;60.60;;;;;;5071267;28;20033;-73
2022/06/11 12:39:27;;;;;;;12.50;3.35;;;25.50;60.20;;;;;;5063974;28;20052;-73
2022/06/11 12:42:02;;;;;;;14.15;3.45;;;25.40;60.90;;;;;;5080963;28;20098;-73
2022/06/11 12:44:43;;;;;;;12.68;3.42;;;25.40;60.70;;;;;;5065042;28;20039;-73
2022/06/11 12:47:17;;;;;;;17.15;3.70;;;25.30;61.10;;;;;;5068074;28;20523;-73
2022/06/11 12:50:12;;;;;;;15.45;3.40;;;25.60;59.50;;;;;;5051446;28;20055;-73
2022/06/11 12:53:11;;;;;;;14.30;3.70;;;25.80;62.50;;;;;;5072924;28;20043;-73
2022/06/11 12:55:52;;;;;;;13.82;3.35;;;25.70;60.40;;;;;;5085356;28;20080;-73
2022/06/11 12:58:33;;;;;;;16.23;3.60;;;25.50;58.20;;;;;;5070019;28;20047;-73
2022/06/11 13:01:19;;;;;;;15.30;3.67;;;25.20;61.40;;;;;;5068852;28;20036;-73
2022/06/11 13:03:58;;;;;;;16.80;3.72;;;25.30;60.30;;;;;;5071064;28;20041;-73
2022/06/11 13:07:00;;;;;;;14.10;3.63;;;25.30;61.30;;;;;;5069147;28;20093;-73
2022/06/11 13:09:43;;;;;;;14.88;3.78;;;25.30;59.70;;;;;;5067415;28;20056;-73
2022/06/11 13:12:08;;;;;;;13.73;3.38;;;25.70;60.80;;;;;;5071103;28;20044;-73
2022/06/11 13:15:12;;;;;;;14.77;3.60;;;25.90;59.50;;;;;;5066172;28;20089;-73